Anton Chico, New Mexico
Current Conditions -  °F | °C
As of 9:53 AM on Monday 24 Nov 2014 (Local Time) from KLVS Reporting Station
Clear Clear  
Wind Chill: 27°   Ceiling: Unl
Heat Index: 34°   Visibility: 10mi
Dew Point:   Wind: 8mph
Humidity: 30%   Direction: 360°N
Pressure: 30.02"   Gusts: 17mph
Location:  35.2°N, 105.14°W
Report Text: KLVS 241653Z AUTO 36007G15KT 290V040 10SM CLR 01/M15 A3002 RMK AO2 SLP158 T00111150
Loading
Personal Weather Stations






























Interactive Weather Map New forecast layout! Learn more

10-Day Weather Forecast

Advertisements
Track Severe Weather on mobile